sensor_id;sensor_type;location;lat;lon;timestamp;pressure;altitude;pressure_sealevel;temperature;humidity
8697;BME280;4385;48.848;8.924;2024-01-07T00:00:58;96763.19;;;17.23;100.00
8697;BME280;4385;48.848;8.924;2024-01-07T00:03:23;96767.50;;;17.20;100.00
8697;BME280;4385;48.848;8.924;2024-01-07T00:05:48;96768.41;;;17.18;100.00
8697;BME280;4385;48.848;8.924;2024-01-07T00:08:14;96771.84;;;17.17;100.00
8697;BME280;4385;48.848;8.924;2024-01-07T00:10:39;96778.69;;;17.15;100.00
8697;BME280;4385;48.848;8.924;2024-01-07T00:13:04;96775.34;;;17.13;100.00
8697;BME280;4385;48.848;8.924;2024-01-07T00:15:29;96777.09;;;17.11;100.00
8697;BME280;4385;48.848;8.924;2024-01-07T00:17:55;96778.84;;;17.08;100.00
8697;BME280;4385;48.848;8.924;2024-01-07T00:20:20;96779.72;;;17.07;100.00
8697;BME280;4385;48.848;8.924;2024-01-07T00:22:45;96780.59;;;17.06;100.00
8697;BME280;4385;48.848;8.924;2024-01-07T00:25:11;96778.91;;;17.05;100.00
8697;BME280;4385;48.848;8.924;2024-01-07T00:27:36;96777.25;;;17.04;100.00
8697;BME280;4385;48.848;8.924;2024-01-07T00:30:01;96785.75;;;17.03;100.00
8697;BME280;4385;48.848;8.924;2024-01-07T00:32:27;96776.47;;;17.01;100.00
8697;BME280;4385;48.848;8.924;2024-01-07T00:34:52;96781.63;;;16.99;100.00
8697;BME280;4385;48.848;8.924;2024-01-07T00:37:18;96782.50;;;16.98;100.00
8697;BME280;4385;48.848;8.924;2024-01-07T00:39:43;96781.69;;;16.96;100.00
8697;BME280;4385;48.848;8.924;2024-01-07T00:42:10;96781.75;;;16.94;100.00
8697;BME280;4385;48.848;8.924;2024-01-07T00:44:37;96775.84;;;16.94;100.00
8697;BME280;4385;48.848;8.924;2024-01-07T00:47:02;96778.44;;;16.92;100.00
8697;BME280;4385;48.848;8.924;2024-01-07T00:49:28;96781.88;;;16.90;100.00
8697;BME280;4385;48.848;8.924;2024-01-07T00:51:53;96777.66;;;16.89;100.00
8697;BME280;4385;48.848;8.924;2024-01-07T00:54:18;96779.41;;;16.87;100.00
8697;BME280;4385;48.848;8.924;2024-01-07T00:56:45;96777.75;;;16.86;100.00
8697;BME280;4385;48.848;8.924;2024-01-07T00:59:10;96779.50;;;16.83;100.00
8697;BME280;4385;48.848;8.924;2024-01-07T01:01:36;96782.91;;;16.82;100.00
8697;BME280;4385;48.848;8.924;2024-01-07T01:04:01;96781.25;;;16.81;100.00
8697;BME280;4385;48.848;8.924;2024-01-07T01:06:26;96774.53;;;16.79;100.00
8697;BME280;4385;48.848;8.924;2024-01-07T01:08:51;96781.34;;;16.78;100.00
8697;BME280;4385;48.848;8.924;2024-01-07T01:11:17;96785.59;;;16.78;100.00
8697;BME280;4385;48.848;8.924;2024-01-07T01:13:42;96782.19;;;16.77;100.00
8697;BME280;4385;48.848;8.924;2024-01-07T01:16:07;96784.78;;;16.76;100.00
8697;BME280;4385;48.848;8.924;2024-01-07T01:18:33;96785.66;;;16.75;100.00
8697;BME280;4385;48.848;8.924;2024-01-07T01:20:58;96791.63;;;16.74;100.00
8697;BME280;4385;48.848;8.924;2024-01-07T01:23:23;96789.94;;;16.73;100.00
8697;BME280;4385;48.848;8.924;2024-01-07T01:25:48;96792.53;;;16.71;100.00
8697;BME280;4385;48.848;8.924;2024-01-07T01:28:14;96793.41;;;16.70;100.00
8697;BME280;4385;48.848;8.924;2024-01-07T01:30:39;96795.06;;;16.71;100.00
8697;BME280;4385;48.848;8.924;2024-01-07T01:33:05;96795.13;;;16.69;100.00
8697;BME280;4385;48.848;8.924;2024-01-07T01:35:31;96796.00;;;16.68;100.00
8697;BME280;4385;48.848;8.924;2024-01-07T01:37:56;96804.53;;;16.67;100.00
8697;BME280;4385;48.848;8.924;2024-01-07T01:40:21;96798.59;;;16.67;100.00
8697;BME280;4385;48.848;8.924;2024-01-07T01:42:47;96798.66;;;16.64;100.00
8697;BME280;4385;48.848;8.924;2024-01-07T01:45:16;96796.13;;;16.64;100.00
8697;BME280;4385;48.848;8.924;2024-01-07T01:47:42;96801.25;;;16.62;100.00
8697;BME280;4385;48.848;8.924;2024-01-07T01:50:09;96802.09;;;16.63;100.00
8697;BME280;4385;48.848;8.924;2024-01-07T01:52:36;96796.19;;;16.61;100.00
8697;BME280;4385;48.848;8.924;2024-01-07T01:55:01;96797.09;;;16.60;100.00
8697;BME280;4385;48.848;8.924;2024-01-07T01:57:32;96796.28;;;16.57;100.00
8697;BME280;4385;48.848;8.924;2024-01-07T01:59:58;96799.66;;;16.58;100.00
8697;BME280;4385;48.848;8.924;2024-01-07T02:02:29;96797.97;;;16.57;100.00
8697;BME280;4385;48.848;8.924;2024-01-07T02:04:56;96801.41;;;16.56;100.00
8697;BME280;4385;48.848;8.924;2024-01-07T02:07:21;96802.25;;;16.56;100.00
8697;BME280;4385;48.848;8.924;2024-01-07T02:09:46;96796.31;;;16.56;100.00
8697;BME280;4385;48.848;8.924;2024-01-07T02:12:12;96794.66;;;16.55;100.00
8697;BME280;4385;48.848;8.924;2024-01-07T02:14:38;96803.19;;;16.52;100.00
8697;BME280;4385;48.848;8.924;2024-01-07T02:17:04;96804.06;;;16.51;100.00
8697;BME280;4385;48.848;8.924;2024-01-07T02:19:29;96795.63;;;16.49;100.00
8697;BME280;4385;48.848;8.924;2024-01-07T02:21:54;96810.06;;;16.49;100.00
8697;BME280;4385;48.848;8.924;2024-01-07T02:24:20;96807.56;;;16.47;100.00
8697;BME280;4385;48.848;8.924;2024-01-07T02:26:45;96804.22;;;16.45;100.00
8697;BME280;4385;48.848;8.924;2024-01-07T02:29:10;96806.75;;;16.45;100.00
8697;BME280;4385;48.848;8.924;2024-01-07T02:31:36;96811.88;;;16.43;100.00
8697;BME280;4385;48.848;8.924;2024-01-07T02:34:01;96811.03;;;16.43;100.00
8697;BME280;4385;48.848;8.924;2024-01-07T02:36:26;96806.84;;;16.42;100.00
8697;BME280;4385;48.848;8.924;2024-01-07T02:38:51;96814.47;;;16.42;100.00
8697;BME280;4385;48.848;8.924;2024-01-07T02:41:17;96810.25;;;16.41;100.00
8697;BME280;4385;48.848;8.924;2024-01-07T02:43:42;96810.25;;;16.41;100.00
8697;BME280;4385;48.848;8.924;2024-01-07T02:46:08;96812.84;;;16.39;100.00
8697;BME280;4385;48.848;8.924;2024-01-07T02:48:33;96810.31;;;16.39;100.00
8697;BME280;4385;48.848;8.924;2024-01-07T02:50:59;96809.47;;;16.39;100.00
8697;BME280;4385;48.848;8.924;2024-01-07T02:53:24;96802.72;;;16.38;100.00
8697;BME280;4385;48.848;8.924;2024-01-07T02:55:49;96803.56;;;16.37;100.00
8697;BME280;4385;48.848;8.924;2024-01-07T02:58:15;96812.03;;;16.37;100.00
8697;BME280;4385;48.848;8.924;2024-01-07T03:00:40;96814.63;;;16.36;100.00
8697;BME280;4385;48.848;8.924;2024-01-07T03:03:06;96814.63;;;16.36;100.00
8697;BME280;4385;48.848;8.924;2024-01-07T03:05:31;96816.34;;;16.33;100.00
8697;BME280;4385;48.848;8.924;2024-01-07T03:07:58;96812.16;;;16.32;100.00
8697;BME280;4385;48.848;8.924;2024-01-07T03:10:24;96813.84;;;16.32;100.00
8697;BME280;4385;48.848;8.924;2024-01-07T03:12:50;96818.13;;;16.31;100.00
8697;BME280;4385;48.848;8.924;2024-01-07T03:15:15;96816.44;;;16.30;100.00
8697;BME280;4385;48.848;8.924;2024-01-07T03:17:40;96813.09;;;16.28;100.00
8697;BME280;4385;48.848;8.924;2024-01-07T03:20:06;96815.69;;;16.27;100.00
8697;BME280;4385;48.848;8.924;2024-01-07T03:22:33;96818.25;;;16.25;100.00
8697;BME280;4385;48.848;8.924;2024-01-07T03:24:58;96812.34;;;16.25;100.00
8697;BME280;4385;48.848;8.924;2024-01-07T03:27:23;96822.50;;;16.25;100.00
8697;BME280;4385;48.848;8.924;2024-01-07T03:29:48;96820.00;;;16.23;100.00
8697;BME280;4385;48.848;8.924;2024-01-07T03:32:14;96827.63;;;16.23;100.00
8697;BME280;4385;48.848;8.924;2024-01-07T03:34:39;96825.97;;;16.22;100.00
8697;BME280;4385;48.848;8.924;2024-01-07T03:37:05;96826.81;;;16.21;100.00
8697;BME280;4385;48.848;8.924;2024-01-07T03:39:33;96829.38;;;16.19;100.00
8697;BME280;4385;48.848;8.924;2024-01-07T03:41:59;96831.09;;;16.20;100.00
8697;BME280;4385;48.848;8.924;2024-01-07T03:44:24;96825.16;;;16.20;100.00
8697;BME280;4385;48.848;8.924;2024-01-07T03:46:49;96830.28;;;16.18;100.00
8697;BME280;4385;48.848;8.924;2024-01-07T03:49:16;96832.84;;;16.17;100.00
8697;BME280;4385;48.848;8.924;2024-01-07T03:51:43;96838.81;;;16.16;100.00
8697;BME280;4385;48.848;8.924;2024-01-07T03:54:08;96836.28;;;16.16;100.00
8697;BME280;4385;48.848;8.924;2024-01-07T03:56:33;96837.97;;;16.15;100.00
8697;BME280;4385;48.848;8.924;2024-01-07T03:58:58;96832.03;;;16.15;100.00
8697;BME280;4385;48.848;8.924;2024-01-07T04:01:24;96827.84;;;16.14;100.00
8697;BME280;4385;48.848;8.924;2024-01-07T04:03:49;96832.06;;;16.13;100.00
8697;BME280;4385;48.848;8.924;2024-01-07T04:06:14;96832.13;;;16.12;100.00
8697;BME280;4385;48.848;8.924;2024-01-07T04:08:39;96830.44;;;16.11;100.00
8697;BME280;4385;48.848;8.924;2024-01-07T04:11:05;96840.63;;;16.11;100.00
8697;BME280;4385;48.848;8.924;2024-01-07T04:13:30;96842.31;;;16.10;100.00
8697;BME280;4385;48.848;8.924;2024-01-07T04:15:55;96838.97;;;16.10;100.00
8697;BME280;4385;48.848;8.924;2024-01-07T04:18:20;96842.34;;;16.08;100.00
8697;BME280;4385;48.848;8.924;2024-01-07T04:20:46;96846.63;;;16.08;100.00
8697;BME280;4385;48.848;8.924;2024-01-07T04:23:11;96845.78;;;16.07;100.00
8697;BME280;4385;48.848;8.924;2024-01-07T04:25:36;96850.00;;;16.07;100.00
8697;BME280;4385;48.848;8.924;2024-01-07T04:28:03;96853.41;;;16.07;100.00
8697;BME280;4385;48.848;8.924;2024-01-07T04:30:28;96848.34;;;16.06;100.00
8697;BME280;4385;48.848;8.924;2024-01-07T04:32:53;96863.59;;;16.06;100.00
8697;BME280;4385;48.848;8.924;2024-01-07T04:35:19;96856.00;;;16.04;100.00
8697;BME280;4385;48.848;8.924;2024-01-07T04:37:44;96858.53;;;16.04;100.00
8697;BME280;4385;48.848;8.924;2024-01-07T04:40:10;96861.09;;;16.04;100.00
8697;BME280;4385;48.848;8.924;2024-01-07T04:42:35;96860.28;;;16.02;100.00
8697;BME280;4385;48.848;8.924;2024-01-07T04:45:01;96861.97;;;16.03;100.00
8697;BME280;4385;48.848;8.924;2024-01-07T04:47:30;96867.91;;;16.02;100.00
8697;BME280;4385;48.848;8.924;2024-01-07T04:49:57;96870.44;;;16.02;100.00
8697;BME280;4385;48.848;8.924;2024-01-07T04:52:22;96876.38;;;16.03;100.00
8697;BME280;4385;48.848;8.924;2024-01-07T04:54:50;96872.19;;;16.00;100.00
8697;BME280;4385;48.848;8.924;2024-01-07T04:57:15;96872.19;;;16.00;100.00
8697;BME280;4385;48.848;8.924;2024-01-07T04:59:41;96872.19;;;16.00;100.00
8697;BME280;4385;48.848;8.924;2024-01-07T05:02:06;96873.06;;;15.99;100.00
8697;BME280;4385;48.848;8.924;2024-01-07T05:04:32;96878.13;;;15.99;100.00
8697;BME280;4385;48.848;8.924;2024-01-07T05:06:57;96876.47;;;15.98;100.00
8697;BME280;4385;48.848;8.924;2024-01-07T05:09:22;96875.63;;;15.98;100.00
8697;BME280;4385;48.848;8.924;2024-01-07T05:11:47;96880.72;;;15.98;100.00
8697;BME280;4385;48.848;8.924;2024-01-07T05:14:13;96872.25;;;15.95;100.00
8697;BME280;4385;48.848;8.924;2024-01-07T05:16:38;96875.66;;;15.94;100.00
8697;BME280;4385;48.848;8.924;2024-01-07T05:19:03;96874.81;;;15.94;100.00
8697;BME280;4385;48.848;8.924;2024-01-07T05:21:29;96892.59;;;15.94;100.00
8697;BME280;4385;48.848;8.924;2024-01-07T05:23:54;96887.56;;;15.92;100.00
8697;BME280;4385;48.848;8.924;2024-01-07T05:26:19;96890.97;;;15.91;100.00
8697;BME280;4385;48.848;8.924;2024-01-07T05:28:45;96884.22;;;15.90;100.00
8697;BME280;4385;48.848;8.924;2024-01-07T05:31:16;96885.06;;;15.89;100.00
8697;BME280;4385;48.848;8.924;2024-01-07T05:33:43;96892.69;;;15.89;100.00
8697;BME280;4385;48.848;8.924;2024-01-07T05:36:08;96888.50;;;15.88;100.00
8697;BME280;4385;48.848;8.924;2024-01-07T05:38:33;96900.34;;;15.88;100.00
8697;BME280;4385;48.848;8.924;2024-01-07T05:40:59;96895.28;;;15.88;100.00
8697;BME280;4385;48.848;8.924;2024-01-07T05:43:24;96902.09;;;15.87;100.00
8697;BME280;4385;48.848;8.924;2024-01-07T05:45:49;96901.22;;;15.87;100.00
8697;BME280;4385;48.848;8.924;2024-01-07T05:48:15;96899.56;;;15.86;100.00
8697;BME280;4385;48.848;8.924;2024-01-07T05:50:40;96908.03;;;15.84;100.00
8697;BME280;4385;48.848;8.924;2024-01-07T05:53:05;96911.44;;;15.85;100.00
8697;BME280;4385;48.848;8.924;2024-01-07T05:55:30;96918.22;;;15.83;100.00
8697;BME280;4385;48.848;8.924;2024-01-07T05:57:56;96908.91;;;15.83;100.00
8697;BME280;4385;48.848;8.924;2024-01-07T06:00:21;96913.19;;;15.81;100.00
8697;BME280;4385;48.848;8.924;2024-01-07T06:02:46;96914.06;;;15.80;100.00
8697;BME280;4385;48.848;8.924;2024-01-07T06:05:12;96920.81;;;15.81;100.00
8697;BME280;4385;48.848;8.924;2024-01-07T06:07:37;96912.38;;;15.81;100.00
8697;BME280;4385;48.848;8.924;2024-01-07T06:10:03;96924.22;;;15.80;100.00
8697;BME280;4385;48.848;8.924;2024-01-07T06:12:28;96922.56;;;15.79;100.00
8697;BME280;4385;48.848;8.924;2024-01-07T06:14:54;96919.22;;;15.77;100.00
8697;BME280;4385;48.848;8.924;2024-01-07T06:17:19;96928.53;;;15.77;100.00
8697;BME280;4385;48.848;8.924;2024-01-07T06:19:44;96922.63;;;15.76;100.00
8697;BME280;4385;48.848;8.924;2024-01-07T06:22:10;96930.25;;;15.76;100.00
8697;BME280;4385;48.848;8.924;2024-01-07T06:24:35;96926.00;;;15.75;100.00
8697;BME280;4385;48.848;8.924;2024-01-07T06:27:01;96929.44;;;15.74;100.00
8697;BME280;4385;48.848;8.924;2024-01-07T06:29:29;96932.84;;;15.73;100.00
8697;BME280;4385;48.848;8.924;2024-01-07T06:31:54;96937.94;;;15.73;100.00
8697;BME280;4385;48.848;8.924;2024-01-07T06:34:19;96937.06;;;15.74;100.00
8697;BME280;4385;48.848;8.924;2024-01-07T06:36:44;96943.00;;;15.73;100.00
8697;BME280;4385;48.848;8.924;2024-01-07T06:39:10;96943.00;;;15.73;100.00
8697;BME280;4385;48.848;8.924;2024-01-07T06:41:36;96943.78;;;15.75;100.00
8697;BME280;4385;48.848;8.924;2024-01-07T06:44:02;96949.69;;;15.77;100.00
8697;BME280;4385;48.848;8.924;2024-01-07T06:46:27;96944.56;;;15.80;100.00
8697;BME280;4385;48.848;8.924;2024-01-07T06:48:53;96947.03;;;15.83;100.00
8697;BME280;4385;48.848;8.924;2024-01-07T06:51:18;96947.84;;;15.86;100.00
8697;BME280;4385;48.848;8.924;2024-01-07T06:53:43;96952.88;;;15.89;100.00
8697;BME280;4385;48.848;8.924;2024-01-07T06:56:08;96956.19;;;15.91;100.00
8697;BME280;4385;48.848;8.924;2024-01-07T06:58:34;96956.16;;;15.92;100.00
8697;BME280;4385;48.848;8.924;2024-01-07T07:00:59;96962.91;;;15.95;100.00
8697;BME280;4385;48.848;8.924;2024-01-07T07:03:24;96967.97;;;15.96;100.00
8697;BME280;4385;48.848;8.924;2024-01-07T07:05:50;96975.53;;;16.00;100.00
8697;BME280;4385;48.848;8.924;2024-01-07T07:08:16;96971.25;;;16.03;100.00
8697;BME280;4385;48.848;8.924;2024-01-07T07:10:41;96977.94;;;16.07;100.00
8697;BME280;4385;48.848;8.924;2024-01-07T07:13:06;96977.00;;;16.12;100.00
8697;BME280;4385;48.848;8.924;2024-01-07T07:15:32;96976.06;;;16.16;100.00
8697;BME280;4385;48.848;8.924;2024-01-07T07:17:57;96981.06;;;16.20;100.00
8697;BME280;4385;48.848;8.924;2024-01-07T07:20:22;96990.25;;;16.26;100.00
8697;BME280;4385;48.848;8.924;2024-01-07T07:22:48;96985.91;;;16.31;100.00
8697;BME280;4385;48.848;8.924;2024-01-07T07:25:13;96991.69;;;16.38;100.00
8697;BME280;4385;48.848;8.924;2024-01-07T07:27:38;97000.09;;;16.42;100.00
8697;BME280;4385;48.848;8.924;2024-01-07T07:30:05;97000.06;;;16.43;100.00
8697;BME280;4385;48.848;8.924;2024-01-07T07:32:31;97000.88;;;16.45;100.00
8697;BME280;4385;48.848;8.924;2024-01-07T07:34:56;97006.75;;;16.48;100.00
8697;BME280;4385;48.848;8.924;2024-01-07T07:37:22;97010.06;;;16.51;100.00
8697;BME280;4385;48.848;8.924;2024-01-07T07:39:47;97010.88;;;16.53;100.00
8697;BME280;4385;48.848;8.924;2024-01-07T07:42:12;97013.38;;;16.56;100.00
8697;BME280;4385;48.848;8.924;2024-01-07T07:44:38;97020.94;;;16.60;100.00
8697;BME280;4385;48.848;8.924;2024-01-07T07:47:04;97023.41;;;16.63;100.00
8697;BME280;4385;48.848;8.924;2024-01-07T07:49:29;97028.34;;;16.69;100.00
8697;BME280;4385;48.848;8.924;2024-01-07T07:51:55;97028.34;;;16.69;100.00
8697;BME280;4385;48.848;8.924;2024-01-07T07:54:20;97039.31;;;16.71;100.00
8697;BME280;4385;48.848;8.924;2024-01-07T07:56:45;97035.91;;;16.72;100.00
8697;BME280;4385;48.848;8.924;2024-01-07T07:59:11;97036.72;;;16.73;100.00
8697;BME280;4385;48.848;8.924;2024-01-07T08:01:36;97040.09;;;16.75;100.00
8697;BME280;4385;48.848;8.924;2024-01-07T08:04:02;97043.50;;;16.74;100.00
8697;BME280;4385;48.848;8.924;2024-01-07T08:06:30;97046.03;;;16.75;100.00
8697;BME280;4385;48.848;8.924;2024-01-07T08:08:55;97053.63;;;16.77;100.00
8697;BME280;4385;48.848;8.924;2024-01-07T08:11:20;97056.13;;;16.78;100.00
8697;BME280;4385;48.848;8.924;2024-01-07T08:13:45;97058.66;;;16.80;100.00
8697;BME280;4385;48.848;8.924;2024-01-07T08:16:11;97056.06;;;16.81;100.00
8697;BME280;4385;48.848;8.924;2024-01-07T08:18:36;97057.72;;;16.82;100.00
8697;BME280;4385;48.848;8.924;2024-01-07T08:21:01;97060.25;;;16.84;100.00
8697;BME280;4385;48.848;8.924;2024-01-07T08:23:27;97065.28;;;16.86;100.00
8697;BME280;4385;48.848;8.924;2024-01-07T08:25:52;97066.97;;;16.87;100.00
8697;BME280;4385;48.848;8.924;2024-01-07T08:28:18;97071.19;;;16.88;100.00
8697;BME280;4385;48.848;8.924;2024-01-07T08:30:44;97066.03;;;16.91;100.00
8697;BME280;4385;48.848;8.924;2024-01-07T08:33:09;97070.25;;;16.92;100.00
8697;BME280;4385;48.848;8.924;2024-01-07T08:35:35;97075.31;;;16.93;100.00
8697;BME280;4385;48.848;8.924;2024-01-07T08:38:00;97076.06;;;16.97;100.00
8697;BME280;4385;48.848;8.924;2024-01-07T08:40:25;97076.00;;;17.00;100.00
8697;BME280;4385;48.848;8.924;2024-01-07T08:42:51;97071.69;;;17.02;100.00
8697;BME280;4385;48.848;8.924;2024-01-07T08:45:16;97082.69;;;17.04;100.00
8697;BME280;4385;48.848;8.924;2024-01-07T08:47:42;97077.59;;;17.04;100.00
8697;BME280;4385;48.848;8.924;2024-01-07T08:50:07;97070.78;;;17.06;100.00
8697;BME280;4385;48.848;8.924;2024-01-07T08:52:33;97081.78;;;17.08;100.00
8697;BME280;4385;48.848;8.924;2024-01-07T08:55:01;97080.06;;;17.09;100.00
8697;BME280;4385;48.848;8.924;2024-01-07T08:57:26;97084.28;;;17.10;100.00
8697;BME280;4385;48.848;8.924;2024-01-07T08:59:52;97093.63;;;17.11;100.00
8697;BME280;4385;48.848;8.924;2024-01-07T09:02:17;97083.41;;;17.13;100.00
8697;BME280;4385;48.848;8.924;2024-01-07T09:04:43;97079.13;;;17.13;100.00
8697;BME280;4385;48.848;8.924;2024-01-07T09:07:08;97089.28;;;17.15;100.00
8697;BME280;4385;48.848;8.924;2024-01-07T09:09:33;97089.22;;;17.16;100.00
8697;BME280;4385;48.848;8.924;2024-01-07T09:11:58;97096.03;;;17.17;100.00
8697;BME280;4385;48.848;8.924;2024-01-07T09:14:25;97102.75;;;17.20;100.00
8697;BME280;4385;48.848;8.924;2024-01-07T09:16:51;97102.75;;;17.20;100.00
8697;BME280;4385;48.848;8.924;2024-01-07T09:19:16;97105.22;;;17.23;100.00
8697;BME280;4385;48.848;8.924;2024-01-07T09:21:42;97105.22;;;17.23;100.00
8697;BME280;4385;48.848;8.924;2024-01-07T09:24:09;97111.13;;;17.25;100.00
8697;BME280;4385;48.848;8.924;2024-01-07T09:26:34;97113.63;;;17.27;100.00
8697;BME280;4385;48.848;8.924;2024-01-07T09:28:59;97109.34;;;17.27;100.00
8697;BME280;4385;48.848;8.924;2024-01-07T09:31:25;97115.25;;;17.29;100.00
8697;BME280;4385;48.848;8.924;2024-01-07T09:33:50;97115.22;;;17.31;100.00
8697;BME280;4385;48.848;8.924;2024-01-07T09:36:15;97113.50;;;17.33;100.00
8697;BME280;4385;48.848;8.924;2024-01-07T09:38:41;97122.81;;;17.32;100.00
8697;BME280;4385;48.848;8.924;2024-01-07T09:41:07;97115.16;;;17.34;100.00
8697;BME280;4385;48.848;8.924;2024-01-07T09:43:32;97123.63;;;17.35;100.00
8697;BME280;4385;48.848;8.924;2024-01-07T09:45:59;97129.50;;;17.37;100.00
8697;BME280;4385;48.848;8.924;2024-01-07T09:48:24;97126.81;;;17.43;100.00
8697;BME280;4385;48.848;8.924;2024-01-07T09:50:51;97122.53;;;17.45;100.00
8697;BME280;4385;48.848;8.924;2024-01-07T09:53:20;97133.53;;;17.47;100.00
8697;BME280;4385;48.848;8.924;2024-01-07T09:58:31;97132.50;;;17.54;100.00
8697;BME280;4385;48.848;8.924;2024-01-07T10:00:56;97129.03;;;17.57;100.00
8697;BME280;4385;48.848;8.924;2024-01-07T10:03:21;97129.81;;;17.61;100.00
8697;BME280;4385;48.848;8.924;2024-01-07T10:05:47;97136.53;;;17.63;100.00
8697;BME280;4385;48.848;8.924;2024-01-07T10:08:12;97136.47;;;17.66;100.00
8697;BME280;4385;48.848;8.924;2024-01-07T10:10:37;97139.78;;;17.70;100.00
8697;BME280;4385;48.848;8.924;2024-01-07T10:13:04;97139.75;;;17.72;100.00
8697;BME280;4385;48.848;8.924;2024-01-07T10:15:31;97139.69;;;17.73;100.00
8697;BME280;4385;48.848;8.924;2024-01-07T10:18:04;97140.59;;;17.72;100.00
8697;BME280;4385;48.848;8.924;2024-01-07T10:20:31;97136.31;;;17.73;100.00
8697;BME280;4385;48.848;8.924;2024-01-07T10:22:58;97148.19;;;17.74;100.00
8697;BME280;4385;48.848;8.924;2024-01-07T10:25:23;97149.00;;;17.74;100.00
8697;BME280;4385;48.848;8.924;2024-01-07T10:27:48;97141.38;;;17.74;100.00
8697;BME280;4385;48.848;8.924;2024-01-07T10:30:15;97137.06;;;17.76;100.00
8697;BME280;4385;48.848;8.924;2024-01-07T10:32:42;97144.84;;;17.72;100.00
8697;BME280;4385;48.848;8.924;2024-01-07T10:35:12;97147.41;;;17.70;100.00
8697;BME280;4385;48.848;8.924;2024-01-07T10:37:38;97139.00;;;17.66;100.00
8697;BME280;4385;48.848;8.924;2024-01-07T10:40:05;97138.16;;;17.67;100.00
8697;BME280;4385;48.848;8.924;2024-01-07T10:42:31;97144.09;;;17.66;100.00
8697;BME280;4385;48.848;8.924;2024-01-07T10:44:58;97139.97;;;17.62;100.00
8697;BME280;4385;48.848;8.924;2024-01-07T10:47:27;97140.81;;;17.63;100.00
8697;BME280;4385;48.848;8.924;2024-01-07T10:49:56;97145.06;;;17.62;100.00
8697;BME280;4385;48.848;8.924;2024-01-07T10:52:22;97140.81;;;17.63;100.00
8697;BME280;4385;48.848;8.924;2024-01-07T10:54:48;97145.06;;;17.62;100.00
8697;BME280;4385;48.848;8.924;2024-01-07T10:57:21;97146.75;;;17.62;100.00
8697;BME280;4385;48.848;8.924;2024-01-07T10:59:50;97143.41;;;17.61;100.00
8697;BME280;4385;48.848;8.924;2024-01-07T11:02:16;97140.88;;;17.60;100.00
8697;BME280;4385;48.848;8.924;2024-01-07T11:04:51;97144.28;;;17.58;100.00
8697;BME280;4385;48.848;8.924;2024-01-07T11:07:35;97140.91;;;17.58;100.00
8697;BME280;4385;48.848;8.924;2024-01-07T11:10:18;97144.28;;;17.58;100.00
8697;BME280;4385;48.848;8.924;2024-01-07T11:12:54;97145.97;;;17.60;100.00
8697;BME280;4385;48.848;8.924;2024-01-07T11:18:19;97147.66;;;17.61;100.00
8697;BME280;4385;48.848;8.924;2024-01-07T11:20:45;97141.66;;;17.62;100.00
8697;BME280;4385;48.848;8.924;2024-01-07T11:23:30;97153.50;;;17.64;100.00
8697;BME280;4385;48.848;8.924;2024-01-07T11:25:58;97152.66;;;17.64;100.00
8697;BME280;4385;48.848;8.924;2024-01-07T11:31:09;97156.84;;;17.66;100.00
8697;BME280;4385;48.848;8.924;2024-01-07T11:33:36;97161.03;;;17.69;100.00
8697;BME280;4385;48.848;8.924;2024-01-07T11:36:03;97161.81;;;17.71;100.00
8697;BME280;4385;48.848;8.924;2024-01-07T11:38:29;97160.97;;;17.72;100.00
8697;BME280;4385;48.848;8.924;2024-01-07T11:40:56;97160.97;;;17.72;100.00
8697;BME280;4385;48.848;8.924;2024-01-07T11:43:22;97162.59;;;17.75;100.00
8697;BME280;4385;48.848;8.924;2024-01-07T11:45:49;97167.69;;;17.75;100.00
8697;BME280;4385;48.848;8.924;2024-01-07T11:48:15;97163.44;;;17.75;100.00
8697;BME280;4385;48.848;8.924;2024-01-07T11:50:41;97167.66;;;17.76;100.00
8697;BME280;4385;48.848;8.924;2024-01-07T11:53:06;97162.56;;;17.76;100.00
8697;BME280;4385;48.848;8.924;2024-01-07T11:55:33;97164.22;;;17.77;100.00
8697;BME280;4385;48.848;8.924;2024-01-07T11:58:03;97165.91;;;17.78;100.00
8697;BME280;4385;48.848;8.924;2024-01-07T12:00:35;97165.06;;;17.78;100.00
8697;BME280;4385;48.848;8.924;2024-01-07T12:03:00;97167.63;;;17.78;100.00
8697;BME280;4385;48.848;8.924;2024-01-07T12:05:27;97167.56;;;17.79;100.00
8697;BME280;4385;48.848;8.924;2024-01-07T12:07:52;97165.03;;;17.79;100.00
8697;BME280;4385;48.848;8.924;2024-01-07T12:10:17;97161.59;;;17.80;100.00
8697;BME280;4385;48.848;8.924;2024-01-07T12:12:43;97169.25;;;17.80;100.00
8697;BME280;4385;48.848;8.924;2024-01-07T12:15:09;97164.16;;;17.80;100.00
8697;BME280;4385;48.848;8.924;2024-01-07T12:17:38;97168.44;;;17.80;100.00
8697;BME280;4385;48.848;8.924;2024-01-07T12:20:04;97173.47;;;17.81;100.00
8697;BME280;4385;48.848;8.924;2024-01-07T12:22:30;97165.00;;;17.81;100.00
8697;BME280;4385;48.848;8.924;2024-01-07T12:25:08;97180.28;;;17.81;100.00
8697;BME280;4385;48.848;8.924;2024-01-07T12:27:34;97176.03;;;17.81;100.00
8697;BME280;4385;48.848;8.924;2024-01-07T12:30:00;97171.75;;;17.82;100.00
8697;BME280;4385;48.848;8.924;2024-01-07T12:32:26;97176.03;;;17.81;100.00
8697;BME280;4385;48.848;8.924;2024-01-07T12:34:52;97181.94;;;17.82;100.00
8697;BME280;4385;48.848;8.924;2024-01-07T12:37:17;97173.47;;;17.81;100.00
8697;BME280;4385;48.848;8.924;2024-01-07T12:39:42;97177.69;;;17.82;100.00
8697;BME280;4385;48.848;8.924;2024-01-07T12:42:08;97180.25;;;17.82;100.00
8697;BME280;4385;48.848;8.924;2024-01-07T12:44:35;97176.81;;;17.83;100.00
8697;BME280;4385;48.848;8.924;2024-01-07T12:47:01;97176.78;;;17.85;100.00
8697;BME280;4385;48.848;8.924;2024-01-07T12:49:27;97176.69;;;17.88;100.00
8697;BME280;4385;48.848;8.924;2024-01-07T12:51:52;97177.47;;;17.92;100.00
8697;BME280;4385;48.848;8.924;2024-01-07T12:54:17;97185.88;;;17.95;100.00
8697;BME280;4385;48.848;8.924;2024-01-07T12:56:44;97179.91;;;17.97;100.00
8697;BME280;4385;48.848;8.924;2024-01-07T12:59:09;97189.19;;;17.99;100.00
8697;BME280;4385;48.848;8.924;2024-01-07T13:01:34;97200.22;;;18.00;100.00
8697;BME280;4385;48.848;8.924;2024-01-07T13:04:01;97197.63;;;18.01;100.00
8697;BME280;4385;48.848;8.924;2024-01-07T13:06:27;97199.31;;;18.02;100.00
8697;BME280;4385;48.848;8.924;2024-01-07T13:08:52;97201.81;;;18.04;100.00
8697;BME280;4385;48.848;8.924;2024-01-07T13:11:18;97200.06;;;18.06;100.00